Time;durP1;ratioP1;P1;durP2;ratioP2;P2;SDS_P1;SDS_P2;PMS_P1;PMS_P2;Temp;Humidity;BMP_temperature;BMP_pressure;BME280_temperature;BME280_humidity;BME280_pressure;Samples;Min_cycle;Max_cycle;Signal;HPM_P1;HPM_P2
2022/08/24 00:01:07;;;;;;;4.57;1.73;;;;;;;;;;5055643;28;20021;-69
2022/08/24 00:03:34;;;;;;;3.63;1.80;;;;;;;;;;5055076;28;20025;-69
2022/08/24 00:06:00;;;;;;;3.05;1.65;;;;;;;;;;5055408;28;20474;-69
2022/08/24 00:08:26;;;;;;;5.25;1.60;;;;;;;;;;5055040;28;20029;-68
2022/08/24 00:10:52;;;;;;;4.50;1.92;;;;;;;;;;5055475;28;20035;-69
2022/08/24 00:13:19;;;;;;;1.92;1.60;;;;;;;;;;5054991;28;20027;-70
2022/08/24 00:15:45;;;;;;;5.53;2.10;;;;;;;;;;5037099;28;20441;-69
2022/08/24 00:18:11;;;;;;;2.83;1.75;;;;;;;;;;5054820;28;20391;-68
2022/08/24 00:20:37;;;;;;;2.75;1.90;;;;;;;;;;5054808;28;20479;-69
2022/08/24 00:23:04;;;;;;;5.93;1.77;;;;;;;;;;5054782;28;20025;-68
2022/08/24 00:25:30;;;;;;;3.50;1.77;;;;;;;;;;5054717;28;20135;-69
2022/08/24 00:27:56;;;;;;;4.20;1.73;;;;;;;;;;5054635;28;20029;-67
2022/08/24 00:30:22;;;;;;;4.13;1.80;;;;;;;;;;5054523;28;20408;-69
2022/08/24 00:32:49;;;;;;;3.33;1.58;;;;;;;;;;5054582;28;20432;-69
2022/08/24 00:35:17;;;;;;;2.08;1.48;;;;;;;;;;5054813;28;20389;-68
2022/08/24 00:37:43;;;;;;;4.18;1.40;;;;;;;;;;5054768;28;20028;-69
2022/08/24 00:40:20;;;;;;;4.18;1.70;;;;;;;;;;5036534;28;20492;-68
2022/08/24 00:42:46;;;;;;;4.07;1.73;;;;;;;;;;5054708;28;20024;-68
2022/08/24 00:45:15;;;;;;;2.80;1.63;;;;;;;;;;5054943;28;20036;-69
2022/08/24 00:47:45;;;;;;;3.65;1.80;;;;;;;;;;5054364;28;20032;-69
2022/08/24 00:50:14;;;;;;;2.30;1.30;;;;;;;;;;5054773;28;20062;-69
2022/08/24 00:52:43;;;;;;;3.63;1.13;;;;;;;;;;5054215;28;20032;-69
2022/08/24 00:55:29;;;;;;;1.95;1.27;;;;;;;;;;5054022;28;20075;-69
2022/08/24 00:57:57;;;;;;;3.55;1.60;;;;;;;;;;5054017;28;20021;-68
2022/08/24 01:00:25;;;;;;;1.85;1.20;;;;;;;;;;5054444;28;20025;-68
2022/08/24 01:02:53;;;;;;;3.10;1.30;;;;;;;;;;5054303;28;20078;-68
2022/08/24 01:05:19;;;;;;;2.88;1.23;;;;;;;;;;5054204;28;20028;-68
2022/08/24 01:07:49;;;;;;;4.93;1.75;;;;;;;;;;5054186;28;20029;-69
2022/08/24 01:10:17;;;;;;;4.40;1.90;;;;;;;;;;5054597;28;20052;-69
2022/08/24 01:12:45;;;;;;;4.82;1.88;;;;;;;;;;5053821;28;20021;-68
2022/08/24 01:15:12;;;;;;;5.68;2.00;;;;;;;;;;5053678;28;20017;-69
2022/08/24 01:20:25;;;;;;;6.28;2.25;;;;;;;;;;5053722;28;20036;-69
2022/08/24 01:23:14;;;;;;;6.10;2.00;;;;;;;;;;5054002;28;20108;-69
2022/08/24 01:25:42;;;;;;;3.97;2.33;;;;;;;;;;5030419;28;20148;-68
2022/08/24 01:28:09;;;;;;;3.97;1.42;;;;;;;;;;5053622;28;20103;-68
2022/08/24 01:30:36;;;;;;;2.50;1.20;;;;;;;;;;5053431;28;20446;-69
2022/08/24 01:33:04;;;;;;;6.28;1.95;;;;;;;;;;5053528;28;20036;-68
2022/08/24 01:35:31;;;;;;;5.75;2.25;;;;;;;;;;5053715;28;20024;-69
2022/08/24 01:37:59;;;;;;;3.53;1.90;;;;;;;;;;5053426;28;20016;-68
2022/08/24 01:40:28;;;;;;;3.85;1.95;;;;;;;;;;5053422;28;20087;-69
2022/08/24 01:42:54;;;;;;;4.77;2.33;;;;;;;;;;5053353;28;20033;-68
2022/08/24 01:45:20;;;;;;;3.83;2.00;;;;;;;;;;5035419;28;20035;-68
2022/08/24 01:47:46;;;;;;;3.50;1.83;;;;;;;;;;5053571;28;20029;-68
2022/08/24 01:50:12;;;;;;;4.78;2.00;;;;;;;;;;5053153;28;20112;-69
2022/08/24 01:52:40;;;;;;;3.97;2.25;;;;;;;;;;5053219;28;20021;-68
2022/08/24 01:55:08;;;;;;;3.70;1.88;;;;;;;;;;5053277;28;20033;-68
2022/08/24 01:57:34;;;;;;;6.22;2.45;;;;;;;;;;5053487;28;20151;-69
2022/08/24 02:00:01;;;;;;;3.65;1.73;;;;;;;;;;5053193;28;20059;-69
2022/08/24 02:02:30;;;;;;;2.05;1.42;;;;;;;;;;5053148;28;20036;-68
2022/08/24 02:04:56;;;;;;;4.30;1.42;;;;;;;;;;5053100;28;20482;-69
2022/08/24 02:07:23;;;;;;;3.22;1.80;;;;;;;;;;5053354;28;20087;-69
2022/08/24 02:09:49;;;;;;;2.92;1.40;;;;;;;;;;5052995;28;20413;-68
2022/08/24 02:12:15;;;;;;;3.45;1.50;;;;;;;;;;5053547;28;20072;-68
2022/08/24 02:14:41;;;;;;;3.78;1.70;;;;;;;;;;5053256;28;20021;-67
2022/08/24 02:17:08;;;;;;;3.30;1.60;;;;;;;;;;5052960;28;20035;-69
2022/08/24 02:19:34;;;;;;;3.88;1.73;;;;;;;;;;5052965;28;20025;-69
2022/08/24 02:22:01;;;;;;;6.60;1.80;;;;;;;;;;5052958;28;20029;-69
2022/08/24 02:24:27;;;;;;;3.58;1.90;;;;;;;;;;5052971;28;20446;-68
2022/08/24 02:26:54;;;;;;;4.22;2.05;;;;;;;;;;5055761;28;20052;-69
2022/08/24 02:29:20;;;;;;;2.85;1.92;;;;;;;;;;5056956;28;20025;-68
2022/08/24 02:31:47;;;;;;;3.03;1.85;;;;;;;;;;5057342;28;20025;-69
2022/08/24 02:34:13;;;;;;;2.67;1.77;;;;;;;;;;5057364;28;20025;-68
2022/08/24 02:36:39;;;;;;;3.22;1.90;;;;;;;;;;5056812;28;20147;-68
2022/08/24 02:39:06;;;;;;;7.80;2.38;;;;;;;;;;5038818;28;20548;-68
2022/08/24 02:41:32;;;;;;;3.50;1.55;;;;;;;;;;5056675;28;20406;-69
2022/08/24 02:43:58;;;;;;;4.80;2.33;;;;;;;;;;5056633;28;20032;-69
2022/08/24 02:46:25;;;;;;;4.13;2.08;;;;;;;;;;5057125;28;20032;-69
2022/08/24 02:48:52;;;;;;;5.13;1.85;;;;;;;;;;5057093;28;20029;-69
2022/08/24 02:51:20;;;;;;;2.88;2.22;;;;;;;;;;5056738;28;20033;-69
2022/08/24 02:53:46;;;;;;;2.80;1.90;;;;;;;;;;5038574;28;20104;-69
2022/08/24 02:56:12;;;;;;;5.70;2.20;;;;;;;;;;5056245;28;20077;-68
2022/08/24 02:58:38;;;;;;;5.38;2.20;;;;;;;;;;5056607;28;20523;-69
2022/08/24 03:01:04;;;;;;;2.80;1.92;;;;;;;;;;5038361;28;20056;-68
2022/08/24 03:03:31;;;;;;;6.63;2.65;;;;;;;;;;5056556;28;20392;-68
2022/08/24 03:05:59;;;;;;;4.78;2.30;;;;;;;;;;5038735;28;20044;-67
2022/08/24 03:08:25;;;;;;;6.10;2.40;;;;;;;;;;5056199;28;20075;-69
2022/08/24 03:10:51;;;;;;;3.40;2.20;;;;;;;;;;5056617;28;20025;-69
2022/08/24 03:13:17;;;;;;;6.68;2.25;;;;;;;;;;5056386;28;20448;-68
2022/08/24 03:15:45;;;;;;;4.78;2.22;;;;;;;;;;5056288;28;20031;-68
2022/08/24 03:18:11;;;;;;;6.65;2.45;;;;;;;;;;5056358;28;20055;-69
2022/08/24 03:20:37;;;;;;;7.28;2.33;;;;;;;;;;5056190;28;20033;-69
2022/08/24 03:23:04;;;;;;;5.32;2.22;;;;;;;;;;5037981;28;20055;-69
2022/08/24 03:25:30;;;;;;;4.95;2.10;;;;;;;;;;5056136;28;20032;-68
2022/08/24 03:27:56;;;;;;;4.90;2.20;;;;;;;;;;5056392;28;20106;-68
2022/08/24 03:30:23;;;;;;;4.63;2.35;;;;;;;;;;5055713;28;20166;-67
2022/08/24 03:32:50;;;;;;;9.20;2.20;;;;;;;;;;5056024;28;20029;-69
2022/08/24 03:35:16;;;;;;;5.35;2.35;;;;;;;;;;5056264;28;20049;-69
2022/08/24 03:37:43;;;;;;;4.75;2.38;;;;;;;;;;5054954;28;20100;-68
2022/08/24 03:40:10;;;;;;;4.78;2.15;;;;;;;;;;5055898;28;20049;-68
2022/08/24 03:42:36;;;;;;;6.07;2.60;;;;;;;;;;5037716;28;20032;-68
2022/08/24 03:45:02;;;;;;;5.18;2.58;;;;;;;;;;5056077;28;20036;-69
2022/08/24 03:47:28;;;;;;;4.93;2.45;;;;;;;;;;5055802;28;20025;-67
2022/08/24 03:49:55;;;;;;;7.65;3.25;;;;;;;;;;5055334;28;20494;-68
2022/08/24 03:52:21;;;;;;;6.90;3.08;;;;;;;;;;5037518;28;20024;-69
2022/08/24 03:54:47;;;;;;;4.50;2.60;;;;;;;;;;5037204;28;20079;-68
2022/08/24 03:57:13;;;;;;;6.80;3.40;;;;;;;;;;5055620;28;20070;-69
2022/08/24 03:59:39;;;;;;;6.60;2.88;;;;;;;;;;5055528;28;20017;-69
2022/08/24 04:02:05;;;;;;;3.80;2.47;;;;;;;;;;5055066;28;20508;-69
2022/08/24 04:04:31;;;;;;;4.57;2.50;;;;;;;;;;5055193;28;20029;-69
2022/08/24 04:06:58;;;;;;;4.40;2.70;;;;;;;;;;5055124;28;20104;-68
2022/08/24 04:09:24;;;;;;;8.07;2.75;;;;;;;;;;5037432;28;20029;-68
2022/08/24 04:11:50;;;;;;;4.60;2.67;;;;;;;;;;5055434;28;20492;-68
2022/08/24 04:14:18;;;;;;;6.22;2.63;;;;;;;;;;5054948;28;20021;-69
2022/08/24 04:16:44;;;;;;;5.22;2.70;;;;;;;;;;5054930;28;20385;-68
2022/08/24 04:19:10;;;;;;;5.45;2.42;;;;;;;;;;5054932;28;20152;-69
2022/08/24 04:21:37;;;;;;;6.00;2.42;;;;;;;;;;5055106;28;20058;-69
2022/08/24 04:24:04;;;;;;;7.15;2.90;;;;;;;;;;5055031;28;20158;-67
2022/08/24 04:26:31;;;;;;;4.40;2.50;;;;;;;;;;5054748;28;20141;-69
2022/08/24 04:28:57;;;;;;;5.43;2.58;;;;;;;;;;5054683;28;20031;-68
2022/08/24 04:31:23;;;;;;;4.25;2.65;;;;;;;;;;5055096;28;20159;-68
2022/08/24 04:33:50;;;;;;;3.28;2.50;;;;;;;;;;5054618;28;20025;-68
2022/08/24 04:36:17;;;;;;;6.82;2.58;;;;;;;;;;5054534;28;20108;-69
2022/08/24 04:38:43;;;;;;;5.03;2.78;;;;;;;;;;5054746;28;20551;-68
2022/08/24 04:41:11;;;;;;;5.38;3.03;;;;;;;;;;5054434;28;20439;-68
2022/08/24 04:43:38;;;;;;;4.05;2.33;;;;;;;;;;5054389;28;20029;-69
2022/08/24 04:46:05;;;;;;;4.97;2.85;;;;;;;;;;5054627;28;20032;-69
2022/08/24 04:48:32;;;;;;;4.25;2.72;;;;;;;;;;5054273;28;20031;-69
2022/08/24 04:51:02;;;;;;;5.45;2.33;;;;;;;;;;5035687;28;20025;-69
2022/08/24 04:53:28;;;;;;;5.18;2.72;;;;;;;;;;5054238;28;20032;-69
2022/08/24 04:55:54;;;;;;;5.00;2.35;;;;;;;;;;5054003;28;20133;-68
2022/08/24 04:58:20;;;;;;;5.55;2.80;;;;;;;;;;5054408;28;20040;-68
2022/08/24 05:00:46;;;;;;;6.68;2.25;;;;;;;;;;5054389;28;20025;-69
2022/08/24 05:03:12;;;;;;;7.70;3.10;;;;;;;;;;5054056;28;20036;-68
2022/08/24 05:05:42;;;;;;;6.13;3.17;;;;;;;;;;5036097;28;20397;-68
2022/08/24 05:08:09;;;;;;;7.78;3.28;;;;;;;;;;5053947;28;20033;-69
2022/08/24 05:10:37;;;;;;;6.13;2.85;;;;;;;;;;5036431;28;20025;-68
2022/08/24 05:13:02;;;;;;;4.15;2.53;;;;;;;;;;5053843;28;20482;-69
2022/08/24 05:15:30;;;;;;;5.05;2.75;;;;;;;;;;5053796;28;20028;-69
2022/08/24 05:17:56;;;;;;;5.13;2.67;;;;;;;;;;5054079;28;20550;-69
2022/08/24 05:20:22;;;;;;;5.38;2.88;;;;;;;;;;5053766;28;20021;-68
2022/08/24 05:22:48;;;;;;;6.32;2.50;;;;;;;;;;5053711;28;20029;-69
2022/08/24 05:25:14;;;;;;;5.45;2.75;;;;;;;;;;5053690;28;20075;-68
2022/08/24 05:27:40;;;;;;;4.78;2.30;;;;;;;;;;5053681;28;20033;-69
2022/08/24 05:30:06;;;;;;;4.80;2.83;;;;;;;;;;5053583;28;20100;-69
2022/08/24 05:32:32;;;;;;;4.75;2.53;;;;;;;;;;5053572;28;20025;-70
2022/08/24 05:35:00;;;;;;;6.10;2.30;;;;;;;;;;5053523;28;20105;-67
2022/08/24 05:37:26;;;;;;;5.22;2.72;;;;;;;;;;5053754;28;20398;-69
2022/08/24 05:39:52;;;;;;;3.38;2.33;;;;;;;;;;5053406;28;20013;-69
2022/08/24 05:42:18;;;;;;;3.15;2.25;;;;;;;;;;5053645;28;20025;-68
2022/08/24 05:44:44;;;;;;;5.25;2.70;;;;;;;;;;5053376;28;20020;-68
2022/08/24 05:47:11;;;;;;;7.68;2.78;;;;;;;;;;5053611;28;20021;-69
2022/08/24 05:49:37;;;;;;;6.65;2.80;;;;;;;;;;5053561;28;20025;-68
2022/08/24 05:52:03;;;;;;;5.90;2.78;;;;;;;;;;5053183;28;20036;-68
2022/08/24 05:54:29;;;;;;;4.15;2.53;;;;;;;;;;5053502;28;20099;-69
2022/08/24 05:56:56;;;;;;;5.28;2.97;;;;;;;;;;5052828;28;20041;-68
2022/08/24 05:59:22;;;;;;;6.53;2.70;;;;;;;;;;5053212;28;20025;-68
2022/08/24 06:01:48;;;;;;;4.97;2.60;;;;;;;;;;5052782;28;20024;-68
2022/08/24 06:04:14;;;;;;;5.85;2.88;;;;;;;;;;5053089;28;20074;-69
2022/08/24 06:06:41;;;;;;;5.85;2.95;;;;;;;;;;5053107;28;20035;-69
2022/08/24 06:09:10;;;;;;;6.13;2.85;;;;;;;;;;5053417;28;20025;-69
2022/08/24 06:11:37;;;;;;;5.53;2.92;;;;;;;;;;5053498;28;20040;-67
2022/08/24 06:14:11;;;;;;;5.95;2.90;;;;;;;;;;5035210;28;20017;-68
2022/08/24 06:16:38;;;;;;;6.57;3.60;;;;;;;;;;5053316;28;20466;-69
2022/08/24 06:19:05;;;;;;;6.72;3.35;;;;;;;;;;5053229;28;20092;-69
2022/08/24 06:21:32;;;;;;;5.97;3.08;;;;;;;;;;5053013;28;20082;-68
2022/08/24 06:23:58;;;;;;;7.40;3.10;;;;;;;;;;5052972;28;20394;-69
2022/08/24 06:29:10;;;;;;;10.90;4.05;;;;;;;;;;5053258;28;20052;-68
2022/08/24 06:31:39;;;;;;;4.70;2.88;;;;;;;;;;5052804;28;20061;-69
2022/08/24 06:34:06;;;;;;;6.70;3.17;;;;;;;;;;5052896;28;20017;-69
2022/08/24 06:36:32;;;;;;;6.82;3.08;;;;;;;;;;5052818;28;20159;-69
2022/08/24 06:38:58;;;;;;;10.02;3.50;;;;;;;;;;5052839;28;20028;-69
2022/08/24 06:41:25;;;;;;;5.82;2.80;;;;;;;;;;5053056;28;20021;-68
2022/08/24 06:43:51;;;;;;;6.00;2.85;;;;;;;;;;5052759;28;20100;-69
2022/08/24 06:46:17;;;;;;;8.15;3.10;;;;;;;;;;5053028;28;20025;-68
2022/08/24 06:48:43;;;;;;;5.90;3.00;;;;;;;;;;5052710;28;20131;-69
2022/08/24 06:51:10;;;;;;;7.63;3.20;;;;;;;;;;5034792;28;20394;-67
2022/08/24 06:53:37;;;;;;;6.55;3.03;;;;;;;;;;5052911;28;20031;-68
2022/08/24 06:56:03;;;;;;;8.57;3.13;;;;;;;;;;5052465;28;20056;-69
2022/08/24 06:58:30;;;;;;;5.35;2.92;;;;;;;;;;5053178;28;20025;-68
2022/08/24 07:00:56;;;;;;;8.25;2.90;;;;;;;;;;5052599;28;20017;-70
2022/08/24 07:03:23;;;;;;;5.28;3.17;;;;;;;;;;5052550;28;20068;-68
2022/08/24 07:05:53;;;;;;;7.32;2.65;;;;;;;;;;5052556;28;20078;-69
2022/08/24 07:08:20;;;;;;;7.18;3.35;;;;;;;;;;5052565;28;20417;-68
2022/08/24 07:10:49;;;;;;;8.13;3.00;;;;;;;;;;5052889;28;20543;-69
2022/08/24 07:13:15;;;;;;;4.60;2.67;;;;;;;;;;5054107;28;20096;-68
2022/08/24 07:15:41;;;;;;;7.82;3.15;;;;;;;;;;5056118;28;20021;-68
2022/08/24 07:18:09;;;;;;;7.57;3.38;;;;;;;;;;5056604;28;20063;-70
2022/08/24 07:20:35;;;;;;;9.68;3.08;;;;;;;;;;5038159;28;20021;-69
2022/08/24 07:23:02;;;;;;;5.72;3.28;;;;;;;;;;5056246;28;20527;-68
2022/08/24 07:25:30;;;;;;;7.38;3.55;;;;;;;;;;5055943;28;20021;-69
2022/08/24 07:27:56;;;;;;;7.75;3.22;;;;;;;;;;5056150;28;20477;-69
2022/08/24 07:30:22;;;;;;;7.75;3.08;;;;;;;;;;5055770;28;20390;-69
2022/08/24 07:32:48;;;;;;;6.05;3.15;;;;;;;;;;5055767;28;20029;-68
2022/08/24 07:35:14;;;;;;;9.43;3.25;;;;;;;;;;5037847;28;20021;-69
2022/08/24 07:37:40;;;;;;;6.18;2.90;;;;;;;;;;5055665;28;20066;-70
2022/08/24 07:40:06;;;;;;;10.70;3.60;;;;;;;;;;5055910;28;20066;-69
2022/08/24 07:42:33;;;;;;;7.32;3.05;;;;;;;;;;5055871;28;20091;-69
2022/08/24 07:44:59;;;;;;;6.18;3.30;;;;;;;;;;5055593;28;20385;-69
2022/08/24 07:47:25;;;;;;;5.57;3.28;;;;;;;;;;5055801;28;20025;-69
2022/08/24 07:49:51;;;;;;;6.50;2.80;;;;;;;;;;5055746;28;20027;-68
2022/08/24 07:52:17;;;;;;;5.68;2.95;;;;;;;;;;5055346;28;20056;-68
2022/08/24 07:54:43;;;;;;;8.32;3.00;;;;;;;;;;5055223;28;20061;-68
2022/08/24 07:57:09;;;;;;;3.30;2.40;;;;;;;;;;5055330;28;20039;-69
2022/08/24 07:59:36;;;;;;;10.32;2.92;;;;;;;;;;5055549;28;20021;-68
2022/08/24 08:02:02;;;;;;;6.90;3.28;;;;;;;;;;5055123;28;20029;-69
2022/08/24 08:04:30;;;;;;;6.22;2.95;;;;;;;;;;5037246;28;20025;-69
2022/08/24 08:06:56;;;;;;;6.43;2.60;;;;;;;;;;5055138;28;20025;-69
2022/08/24 08:09:22;;;;;;;7.65;3.15;;;;;;;;;;5055097;28;20416;-70
2022/08/24 08:11:48;;;;;;;5.10;2.60;;;;;;;;;;5055504;28;20028;-70
2022/08/24 08:14:14;;;;;;;6.35;2.72;;;;;;;;;;5055012;28;20028;-68
2022/08/24 08:16:41;;;;;;;5.93;2.83;;;;;;;;;;5055236;28;20479;-70
2022/08/24 08:19:07;;;;;;;4.35;2.55;;;;;;;;;;5054924;28;20389;-68
2022/08/24 08:24:18;;;;;;;5.45;2.63;;;;;;;;;;5054612;28;20520;-70
2022/08/24 08:26:45;;;;;;;5.65;2.42;;;;;;;;;;5054760;28;20047;-70
2022/08/24 08:29:12;;;;;;;6.03;2.83;;;;;;;;;;5054675;28;20032;-69
2022/08/24 08:31:38;;;;;;;6.40;2.60;;;;;;;;;;5054923;28;20107;-69
2022/08/24 08:34:05;;;;;;;5.07;2.40;;;;;;;;;;5054660;28;20017;-69
2022/08/24 08:36:31;;;;;;;3.88;2.30;;;;;;;;;;5054826;28;20025;-68
2022/08/24 08:38:57;;;;;;;3.55;2.35;;;;;;;;;;5054478;28;20047;-70
2022/08/24 08:41:32;;;;;;;6.35;2.30;;;;;;;;;;5054732;28;20037;-68
2022/08/24 08:44:18;;;;;;;5.95;2.65;;;;;;;;;;5054423;28;20098;-70
2022/08/24 08:47:02;;;;;;;5.30;2.33;;;;;;;;;;5054233;28;20029;-69
2022/08/24 08:49:36;;;;;;;4.90;2.22;;;;;;;;;;5054811;28;20031;-69
2022/08/24 08:52:02;;;;;;;4.55;2.67;;;;;;;;;;5054678;28;20382;-70
2022/08/24 08:54:47;;;;;;;3.60;2.30;;;;;;;;;;5054102;28;20021;-68
2022/08/24 08:57:16;;;;;;;5.05;2.38;;;;;;;;;;5054463;28;20037;-70
2022/08/24 08:59:51;;;;;;;4.53;2.30;;;;;;;;;;5054360;28;20417;-69
2022/08/24 09:02:53;;;;;;;5.32;2.60;;;;;;;;;;5053963;28;20075;-69
2022/08/24 09:05:31;;;;;;;2.97;2.30;;;;;;;;;;4973600;28;20066;-70
2022/08/24 09:08:04;;;;;;;4.60;2.42;;;;;;;;;;5044362;28;20033;-69
2022/08/24 09:10:49;;;;;;;4.03;2.67;;;;;;;;;;5052329;28;20432;-69
2022/08/24 09:13:20;;;;;;;4.13;2.53;;;;;;;;;;5054829;28;20079;-69
2022/08/24 09:16:05;;;;;;;4.97;2.40;;;;;;;;;;5054207;28;20048;-70
2022/08/24 09:18:50;;;;;;;6.47;2.38;;;;;;;;;;5053850;28;20031;-70
2022/08/24 09:21:34;;;;;;;4.72;2.72;;;;;;;;;;5053935;28;20033;-69
2022/08/24 09:24:09;;;;;;;5.57;2.30;;;;;;;;;;5053638;28;20025;-68
2022/08/24 09:26:47;;;;;;;4.95;2.05;;;;;;;;;;5053707;28;20473;-68
2022/08/24 09:29:42;;;;;;;4.43;2.50;;;;;;;;;;5053801;28;20025;-69
2022/08/24 09:32:24;;;;;;;3.78;2.15;;;;;;;;;;5036598;28;20051;-68
2022/08/24 09:35:01;;;;;;;3.63;2.22;;;;;;;;;;5053656;28;20404;-69
2022/08/24 09:37:46;;;;;;;6.63;2.70;;;;;;;;;;5053352;28;20025;-69
2022/08/24 09:40:24;;;;;;;19.08;3.80;;;;;;;;;;5053329;28;20028;-69
2022/08/24 09:42:59;;;;;;;2.97;1.90;;;;;;;;;;5053387;28;20107;-70
2022/08/24 09:45:43;;;;;;;4.45;2.25;;;;;;;;;;5053368;28;20021;-69
2022/08/24 09:48:29;;;;;;;9.48;2.70;;;;;;;;;;5053325;28;20040;-69
2022/08/24 09:51:07;;;;;;;5.78;1.73;;;;;;;;;;5053251;28;20078;-70
2022/08/24 09:53:53;;;;;;;3.05;1.30;;;;;;;;;;5053261;28;20408;-68
2022/08/24 09:56:45;;;;;;;1.90;1.60;;;;;;;;;;5053101;28;20064;-69
2022/08/24 09:59:14;;;;;;;1.65;0.90;;;;;;;;;;5033255;28;20063;-68
2022/08/24 10:02:04;;;;;;;2.90;1.40;;;;;;;;;;5053084;28;20037;-70
2022/08/24 10:04:42;;;;;;;1.17;1.05;;;;;;;;;;5053415;28;20515;-68
2022/08/24 10:07:17;;;;;;;5.38;1.50;;;;;;;;;;5053346;28;20028;-69
2022/08/24 10:09:58;;;;;;;2.08;1.20;;;;;;;;;;5053029;28;20112;-68
2022/08/24 10:12:39;;;;;;;2.25;1.30;;;;;;;;;;5053860;28;20037;-69
2022/08/24 10:15:18;;;;;;;3.00;1.40;;;;;;;;;;5052996;28;20528;-69
2022/08/24 10:18:03;;;;;;;1.77;1.13;;;;;;;;;;5053638;28;20465;-69
2022/08/24 10:20:48;;;;;;;2.50;1.65;;;;;;;;;;5053242;28;20060;-68
2022/08/24 10:23:16;;;;;;;3.22;1.50;;;;;;;;;;5053185;28;20104;-70
2022/08/24 10:25:53;;;;;;;1.92;1.17;;;;;;;;;;5053032;28;20470;-69
2022/08/24 10:28:38;;;;;;;3.22;1.40;;;;;;;;;;5053232;28;20477;-69
2022/08/24 10:31:18;;;;;;;3.50;1.77;;;;;;;;;;5053375;28;20060;-69
2022/08/24 10:33:54;;;;;;;6.75;1.40;;;;;;;;;;5053480;28;20023;-70
2022/08/24 10:36:21;;;;;;;2.88;1.52;;;;;;;;;;5052882;28;20025;-69
2022/08/24 10:41:34;;;;;;;3.83;1.75;;;;;;;;;;5052808;28;20124;-69
2022/08/24 10:44:36;;;;;;;4.85;1.63;;;;;;;;;;5053032;28;20048;-70
2022/08/24 10:47:11;;;;;;;1.00;0.93;;;;;;;;;;5012572;28;20129;-70
2022/08/24 10:49:56;;;;;;;2.25;1.00;;;;;;;;;;5032931;28;20036;-70
2022/08/24 10:52:40;;;;;;;2.38;1.42;;;;;;;;;;5057056;28;20029;-70
2022/08/24 10:55:36;;;;;;;1.70;1.25;;;;;;;;;;5056311;28;20041;-70
2022/08/24 10:58:28;;;;;;;2.88;1.00;;;;;;;;;;5047597;28;20116;-70
2022/08/24 11:00:55;;;;;;;1.45;0.50;;;;;;;;;;5054385;28;20036;-70
2022/08/24 11:03:25;;;;;;;2.60;1.13;;;;;;;;;;5038478;28;20043;-70
2022/08/24 11:05:53;;;;;;;2.00;1.00;;;;;;;;;;5056926;28;20108;-68
2022/08/24 11:08:25;;;;;;;0.85;0.70;;;;;;;;;;5056560;28;20056;-70
2022/08/24 11:11:03;;;;;;;3.17;1.10;;;;;;;;;;5056470;28;20025;-69
2022/08/24 11:13:29;;;;;;;2.75;1.10;;;;;;;;;;5056728;28;20075;-69
2022/08/24 11:15:58;;;;;;;2.25;1.50;;;;;;;;;;5056123;28;20078;-69
2022/08/24 11:18:25;;;;;;;3.20;0.95;;;;;;;;;;5056363;28;20027;-68
2022/08/24 11:20:53;;;;;;;1.92;0.90;;;;;;;;;;5056062;28;20056;-69
2022/08/24 11:23:22;;;;;;;2.08;0.75;;;;;;;;;;5055990;28;20036;-70
2022/08/24 11:25:54;;;;;;;1.88;1.50;;;;;;;;;;5055975;28;20083;-69
2022/08/24 11:28:22;;;;;;;2.25;1.13;;;;;;;;;;5056191;28;20544;-69
2022/08/24 11:30:48;;;;;;;3.50;1.30;;;;;;;;;;5037967;28;20115;-69
2022/08/24 11:33:26;;;;;;;3.35;1.00;;;;;;;;;;5056056;28;20385;-70
2022/08/24 11:35:52;;;;;;;3.90;1.30;;;;;;;;;;5055791;28;20028;-68
2022/08/24 11:38:19;;;;;;;2.67;1.35;;;;;;;;;;5055721;28;20025;-69
2022/08/24 11:40:50;;;;;;;2.25;1.20;;;;;;;;;;5055645;28;20032;-69
2022/08/24 11:43:23;;;;;;;1.10;0.98;;;;;;;;;;5055621;28;20028;-69
2022/08/24 11:46:00;;;;;;;2.47;1.30;;;;;;;;;;5055836;28;20021;-70
2022/08/24 11:48:26;;;;;;;1.85;1.15;;;;;;;;;;5056093;28;20040;-68
2022/08/24 11:50:55;;;;;;;1.50;1.20;;;;;;;;;;5055656;28;20029;-69
2022/08/24 11:53:24;;;;;;;1.30;1.20;;;;;;;;;;5055470;28;20021;-70
2022/08/24 11:55:50;;;;;;;3.20;1.30;;;;;;;;;;5055262;28;20068;-69
2022/08/24 11:58:37;;;;;;;1.52;1.30;;;;;;;;;;5036866;28;20112;-69
2022/08/24 12:01:18;;;;;;;1.27;0.90;;;;;;;;;;5037081;28;20033;-70
2022/08/24 12:04:04;;;;;;;1.48;1.23;;;;;;;;;;5055508;28;20025;-69
2022/08/24 12:06:40;;;;;;;1.25;1.15;;;;;;;;;;5055817;28;20032;-69
2022/08/24 12:09:12;;;;;;;1.73;1.02;;;;;;;;;;5055401;28;20061;-69
2022/08/24 12:11:43;;;;;;;1.92;0.90;;;;;;;;;;5055848;28;20504;-69
2022/08/24 12:14:16;;;;;;;2.00;1.20;;;;;;;;;;5055373;28;20470;-69
2022/08/24 12:16:55;;;;;;;1.50;1.23;;;;;;;;;;5055305;28;20466;-70
2022/08/24 12:19:23;;;;;;;1.70;1.10;;;;;;;;;;5055263;28;20104;-70
2022/08/24 12:21:52;;;;;;;1.42;1.10;;;;;;;;;;5055467;28;20313;-69
2022/08/24 12:24:25;;;;;;;1.35;1.05;;;;;;;;;;5054890;28;20084;-69
2022/08/24 12:26:55;;;;;;;2.58;1.35;;;;;;;;;;5055402;28;20033;-68
2022/08/24 12:29:30;;;;;;;1.30;1.20;;;;;;;;;;5054783;28;20394;-70
2022/08/24 12:31:56;;;;;;;1.63;0.95;;;;;;;;;;5054626;28;20032;-69
2022/08/24 12:34:27;;;;;;;3.40;1.02;;;;;;;;;;5054633;28;20059;-70
2022/08/24 12:36:58;;;;;;;2.42;1.10;;;;;;;;;;5054929;28;20052;-69
2022/08/24 12:39:44;;;;;;;1.58;1.17;;;;;;;;;;5054874;28;20033;-68
2022/08/24 12:42:11;;;;;;;3.08;0.88;;;;;;;;;;5054247;28;20478;-68
2022/08/24 12:44:42;;;;;;;1.08;0.98;;;;;;;;;;5054736;28;20025;-69
2022/08/24 12:47:08;;;;;;;3.78;1.10;;;;;;;;;;5055024;28;20074;-68
2022/08/24 12:49:45;;;;;;;0.85;0.85;;;;;;;;;;5054657;28;20033;-69
2022/08/24 12:52:30;;;;;;;1.23;1.00;;;;;;;;;;5054845;28;20081;-69
2022/08/24 12:54:56;;;;;;;1.00;0.90;;;;;;;;;;5054048;28;20469;-70
2022/08/24 12:57:54;;;;;;;1.13;0.90;;;;;;;;;;5054534;28;20044;-68
2022/08/24 13:00:39;;;;;;;0.90;0.90;;;;;;;;;;5031526;28;20040;-70
2022/08/24 13:03:07;;;;;;;2.90;0.93;;;;;;;;;;5054116;28;20091;-70
2022/08/24 13:05:39;;;;;;;0.82;0.77;;;;;;;;;;5054326;28;20055;-69
2022/08/24 13:08:10;;;;;;;1.33;1.00;;;;;;;;;;5053981;28;20024;-69
2022/08/24 13:10:39;;;;;;;1.90;1.13;;;;;;;;;;5053512;28;20068;-69
2022/08/24 13:13:09;;;;;;;2.17;0.98;;;;;;;;;;5054453;28;20104;-70
2022/08/24 13:15:35;;;;;;;1.63;0.90;;;;;;;;;;5053892;28;20070;-69
2022/08/24 13:18:20;;;;;;;3.05;1.23;;;;;;;;;;5053835;28;20021;-69
2022/08/24 13:20:49;;;;;;;2.90;0.80;;;;;;;;;;5053698;28;20032;-70
2022/08/24 13:23:17;;;;;;;0.80;0.80;;;;;;;;;;5053806;28;20078;-69
2022/08/24 13:25:43;;;;;;;1.70;1.05;;;;;;;;;;5035833;28;20055;-70
2022/08/24 13:28:27;;;;;;;3.00;1.30;;;;;;;;;;5053618;28;20103;-70
2022/08/24 13:30:53;;;;;;;1.33;1.20;;;;;;;;;;5035475;28;20028;-68
2022/08/24 13:33:38;;;;;;;3.17;1.20;;;;;;;;;;5053596;28;20032;-70
2022/08/24 13:36:04;;;;;;;2.08;1.50;;;;;;;;;;5054048;28;20029;-68
2022/08/24 13:38:40;;;;;;;1.10;1.00;;;;;;;;;;5053778;28;20025;-69
2022/08/24 13:41:09;;;;;;;1.98;1.20;;;;;;;;;;5053781;28;20104;-69
2022/08/24 13:43:39;;;;;;;1.77;1.00;;;;;;;;;;5053458;28;20028;-69
2022/08/24 13:46:28;;;;;;;3.53;1.13;;;;;;;;;;5053725;28;20074;-69
2022/08/24 13:49:16;;;;;;;1.33;1.13;;;;;;;;;;5053992;28;20083;-69
2022/08/24 13:51:45;;;;;;;2.78;1.20;;;;;;;;;;5035189;28;20033;-70
2022/08/24 13:54:30;;;;;;;3.50;1.58;;;;;;;;;;5035448;28;20036;-70
2022/08/24 13:56:59;;;;;;;1.25;1.15;;;;;;;;;;5053117;28;20033;-69
2022/08/24 13:59:44;;;;;;;3.57;1.03;;;;;;;;;;5053240;28;20021;-70
2022/08/24 14:02:13;;;;;;;1.58;1.08;;;;;;;;;;5053370;28;20055;-69
2022/08/24 14:04:44;;;;;;;1.40;1.00;;;;;;;;;;5053443;28;20025;-69
2022/08/24 14:07:31;;;;;;;0.90;0.90;;;;;;;;;;5053461;28;20036;-70
2022/08/24 14:10:07;;;;;;;3.40;1.00;;;;;;;;;;5053413;28;20052;-68
2022/08/24 14:12:33;;;;;;;1.17;0.93;;;;;;;;;;5053776;28;20033;-69
2022/08/24 14:15:10;;;;;;;4.43;1.38;;;;;;;;;;5053334;28;20068;-69
2022/08/24 14:17:51;;;;;;;1.08;1.05;;;;;;;;;;5053326;28;20374;-69
2022/08/24 14:20:35;;;;;;;1.27;0.90;;;;;;;;;;5034891;28;20021;-69
2022/08/24 14:23:19;;;;;;;1.42;0.98;;;;;;;;;;5056188;28;20025;-69
2022/08/24 14:25:47;;;;;;;2.55;1.10;;;;;;;;;;5057634;28;20484;-68
2022/08/24 14:28:13;;;;;;;1.98;0.80;;;;;;;;;;5057300;28;20021;-69
2022/08/24 14:30:41;;;;;;;1.77;1.13;;;;;;;;;;5057171;28;20029;-68
2022/08/24 14:33:11;;;;;;;1.10;1.00;;;;;;;;;;5056960;28;20029;-69
2022/08/24 14:35:37;;;;;;;3.47;1.00;;;;;;;;;;5057221;28;20088;-70
2022/08/24 14:38:03;;;;;;;3.08;1.00;;;;;;;;;;5057110;28;20032;-68
2022/08/24 14:40:48;;;;;;;1.92;0.95;;;;;;;;;;5057067;28;20434;-70
2022/08/24 14:43:21;;;;;;;2.15;1.00;;;;;;;;;;5056772;28;20036;-70
2022/08/24 14:45:58;;;;;;;2.92;1.10;;;;;;;;;;5057094;28;20036;-69
2022/08/24 14:48:24;;;;;;;2.55;1.15;;;;;;;;;;5057274;28;20029;-70
2022/08/24 14:50:59;;;;;;;1.00;0.90;;;;;;;;;;5056592;28;20033;-69
2022/08/24 14:53:28;;;;;;;3.63;1.10;;;;;;;;;;5057076;28;20021;-69
2022/08/24 14:55:57;;;;;;;1.33;1.02;;;;;;;;;;5056353;28;20084;-70
2022/08/24 14:58:23;;;;;;;1.73;1.10;;;;;;;;;;5057048;28;20032;-69
2022/08/24 15:00:58;;;;;;;2.42;0.93;;;;;;;;;;5056371;28;20025;-70
2022/08/24 15:03:45;;;;;;;0.77;0.77;;;;;;;;;;5057020;28;20040;-69
2022/08/24 15:06:23;;;;;;;2.83;1.00;;;;;;;;;;5056936;28;20420;-70
2022/08/24 15:08:49;;;;;;;0.70;0.70;;;;;;;;;;5056644;28;20029;-69
2022/08/24 15:11:18;;;;;;;0.63;0.55;;;;;;;;;;5056198;28;20496;-70
2022/08/24 15:13:48;;;;;;;2.05;1.15;;;;;;;;;;5056743;28;20035;-69